createdAt,value
2022-10-11T00:00:03.773Z,92955.66
2022-10-11T00:03:08.387Z,92967.59
2022-10-11T00:06:11.473Z,92969.75
2022-10-11T00:09:15.284Z,92973.31
2022-10-11T00:12:18.257Z,92972.50
2022-10-11T00:15:22.574Z,92975.84
2022-10-11T00:18:26.009Z,92975.25
2022-10-11T00:21:28.991Z,92983.19
2022-10-11T00:24:32.045Z,92986.13
2022-10-11T00:27:36.396Z,92990.88
2022-10-11T00:30:44.293Z,92993.13
2022-10-11T00:33:48.051Z,92993.84
2022-10-11T00:36:51.183Z,92995.13
2022-10-11T00:39:54.848Z,92995.25
2022-10-11T00:42:57.811Z,93002.13
2022-10-11T00:46:08.214Z,93004.63
2022-10-11T00:49:20.346Z,92995.31
2022-10-11T00:52:34.661Z,93004.50
2022-10-11T00:55:42.502Z,92991.53
2022-10-11T00:58:45.586Z,92998.75
2022-10-11T01:01:48.655Z,92994.94
2022-10-11T01:05:11.459Z,92994.44
2022-10-11T01:08:15.652Z,92990.84
2022-10-11T01:11:21.992Z,92985.81
2022-10-11T01:14:38.852Z,92986.03
2022-10-11T01:17:50.593Z,92990.78
2022-10-11T01:20:57.054Z,92991.72
2022-10-11T01:24:08.665Z,92993.88
2022-10-11T01:27:26.973Z,92984.94
2022-10-11T01:30:35.144Z,92989.03
2022-10-11T01:33:46.312Z,92983.22
2022-10-11T01:37:02.398Z,92986.47
2022-10-11T01:40:05.615Z,92980.59
2022-10-11T01:43:10.820Z,92984.59
2022-10-11T01:46:14.372Z,92982.09
2022-10-11T01:49:17.387Z,92986.72
2022-10-11T01:52:20.483Z,92981.59
2022-10-11T01:55:39.138Z,92977.72
2022-10-11T01:59:01.479Z,92967.34
2022-10-11T02:02:22.650Z,92968.09
2022-10-11T02:05:43.706Z,92970.19
2022-10-11T02:09:08.268Z,92976.81
2022-10-11T02:12:14.080Z,92966.44
2022-10-11T02:15:18.300Z,92960.59
2022-10-11T02:18:27.493Z,92959.28
2022-10-11T02:21:31.823Z,92963.94
2022-10-11T02:24:39.033Z,92956.84
2022-10-11T02:27:45.635Z,92962.78
2022-10-11T02:30:51.576Z,92969.38
2022-10-11T02:34:19.455Z,92966.84
2022-10-11T02:37:42.019Z,92966.91
2022-10-11T02:40:49.419Z,92953.25
2022-10-11T02:44:10.182Z,92953.31
2022-10-11T02:47:14.817Z,92947.47
2022-10-11T02:50:18.509Z,92950.09
2022-10-11T02:53:22.305Z,92950.78
2022-10-11T02:56:25.411Z,92946.88
2022-10-11T02:59:28.526Z,92935.19
2022-10-11T03:02:31.527Z,92930.69
2022-10-11T03:05:41.004Z,92920.25
2022-10-11T03:08:43.902Z,92917.66
2022-10-11T03:11:47.007Z,92907.88
2022-10-11T03:14:50.110Z,92902.66
2022-10-11T03:17:53.253Z,92911.16
2022-10-11T03:20:56.420Z,92900.03
2022-10-11T03:23:59.524Z,92892.81
2022-10-11T03:27:02.501Z,92894.09
2022-10-11T03:30:06.407Z,92891.44
2022-10-11T03:33:09.366Z,92890.09
2022-10-11T03:36:12.354Z,92899.81
2022-10-11T03:39:15.446Z,92892.53
2022-10-11T03:42:18.434Z,92886.56
2022-10-11T03:45:21.387Z,92885.19
2022-10-11T03:48:24.690Z,92878.63
2022-10-11T03:51:27.859Z,92874.63
2022-10-11T03:54:30.838Z,92872.63
2022-10-11T03:57:34.033Z,92877.84
2022-10-11T04:00:37.952Z,92864.66
2022-10-11T04:03:41.047Z,92863.25
2022-10-11T04:06:44.146Z,92861.88
2022-10-11T04:09:47.163Z,92859.19
2022-10-11T04:12:50.201Z,92856.47
2022-10-11T04:15:53.291Z,92860.97
2022-10-11T04:18:56.408Z,92860.22
2022-10-11T04:21:59.405Z,92850.97
2022-10-11T04:25:02.399Z,92839.78
2022-10-11T04:28:05.587Z,92842.34
2022-10-11T04:31:08.671Z,92833.69
2022-10-11T04:34:11.761Z,92838.78
2022-10-11T04:37:14.958Z,92831.38
2022-10-11T04:40:18.032Z,92831.91
2022-10-11T04:43:21.522Z,92827.88
2022-10-11T04:46:25.050Z,92814.69
2022-10-11T04:49:28.110Z,92811.22
2022-10-11T04:52:31.268Z,92812.28
2022-10-11T04:55:34.355Z,92800.31
2022-10-11T04:58:38.517Z,92804.72
2022-10-11T05:01:41.554Z,92796.56
2022-10-11T05:04:44.621Z,92798.16
2022-10-11T05:07:47.849Z,92799.75
2022-10-11T05:11:02.203Z,92804.69
2022-10-11T05:14:05.186Z,92807.78
2022-10-11T05:17:08.390Z,92800.97
2022-10-11T05:20:13.243Z,92789.09
2022-10-11T05:23:16.437Z,92794.16
2022-10-11T05:26:20.812Z,92796.00
2022-10-11T05:29:24.813Z,92788.75
2022-10-11T05:32:28.163Z,92782.75
2022-10-11T05:35:31.305Z,92793.81
2022-10-11T05:38:34.383Z,92781.28
2022-10-11T05:41:37.696Z,92776.53
2022-10-11T05:44:40.869Z,92770.72
2022-10-11T05:47:43.882Z,92769.13
2022-10-11T05:50:46.846Z,92772.91
2022-10-11T05:53:49.947Z,92763.50
2022-10-11T05:56:53.060Z,92769.25
2022-10-11T05:59:56.118Z,92765.03
2022-10-11T06:02:59.229Z,92764.72
2022-10-11T06:06:06.039Z,92752.38
2022-10-11T06:09:09.254Z,92747.59
2022-10-11T06:12:12.387Z,92751.41
2022-10-11T06:15:15.550Z,92748.00
2022-10-11T06:18:18.618Z,92747.19
2022-10-11T06:21:22.512Z,92741.50
2022-10-11T06:24:25.563Z,92740.53
2022-10-11T06:27:28.660Z,92737.19
2022-10-11T06:30:31.913Z,92735.53
2022-10-11T06:33:35.892Z,92741.50
2022-10-11T06:36:38.947Z,92738.94
2022-10-11T06:39:42.023Z,92737.59
2022-10-11T06:42:50.371Z,92733.28
2022-10-11T06:45:53.419Z,92734.38
2022-10-11T06:48:57.073Z,92725.13
2022-10-11T06:52:00.223Z,92730.47
2022-10-11T06:55:03.256Z,92729.16
2022-10-11T06:58:06.330Z,92730.53
2022-10-11T07:01:17.187Z,92715.91
2022-10-11T07:04:20.243Z,92714.41
2022-10-11T07:07:23.270Z,92709.84
2022-10-11T07:10:26.290Z,92711.69
2022-10-11T07:13:29.499Z,92699.13
2022-10-11T07:16:32.504Z,92705.66
2022-10-11T07:19:35.520Z,92703.50
2022-10-11T07:22:38.572Z,92702.22
2022-10-11T07:25:41.618Z,92698.13
2022-10-11T07:28:45.365Z,92706.03
2022-10-11T07:31:48.490Z,92696.66
2022-10-11T07:34:51.617Z,92705.84
2022-10-11T07:37:54.659Z,92709.66
2022-10-11T07:40:58.395Z,92713.59
2022-10-11T07:44:01.887Z,92712.28
2022-10-11T07:47:08.953Z,92714.31
2022-10-11T07:50:14.692Z,92709.81
2022-10-11T07:53:17.867Z,92706.03
2022-10-11T07:56:24.640Z,92706.13
2022-10-11T07:59:27.669Z,92700.97
2022-10-11T08:02:30.835Z,92695.81
2022-10-11T08:05:34.857Z,92694.56
2022-10-11T08:08:38.761Z,92690.56
2022-10-11T08:11:41.848Z,92695.16
2022-10-11T08:14:44.962Z,92693.88
2022-10-11T08:17:48.362Z,92691.34
2022-10-11T08:20:51.683Z,92685.53
2022-10-11T08:23:54.626Z,92687.53
2022-10-11T08:26:57.679Z,92687.00
2022-10-11T08:30:01.889Z,92688.34
2022-10-11T08:33:08.602Z,92685.22
2022-10-11T08:36:13.560Z,92684.84
2022-10-11T08:39:16.930Z,92681.06
2022-10-11T08:42:32.048Z,92679.25
2022-10-11T08:45:49.767Z,92675.47
2022-10-11T08:48:53.290Z,92677.84
2022-10-11T08:52:11.046Z,92670.22
2022-10-11T08:55:27.352Z,92669.75
2022-10-11T08:59:05.274Z,92660.78
2022-10-11T09:03:06.310Z,92659.06
2022-10-11T09:06:30.327Z,92656.84
2022-10-11T09:09:48.335Z,92658.00
2022-10-11T09:13:34.736Z,92667.00
2022-10-11T09:16:46.478Z,92663.53
2022-10-11T09:20:07.809Z,92663.22
2022-10-11T09:23:48.082Z,92663.34
2022-10-11T09:27:00.377Z,92661.63
2022-10-11T09:30:15.083Z,92667.91
2022-10-11T09:33:22.060Z,92667.63
2022-10-11T09:36:56.990Z,92672.59
2022-10-11T09:40:25.606Z,92667.06
2022-10-11T09:43:28.855Z,92674.66
2022-10-11T09:46:46.717Z,92670.97
2022-10-11T09:50:02.179Z,92676.44
2022-10-11T09:53:05.946Z,92672.72
2022-10-11T09:56:09.816Z,92676.19
2022-10-11T09:59:34.535Z,92669.84
2022-10-11T10:02:49.531Z,92684.41
2022-10-11T10:06:10.069Z,92688.63
2022-10-11T10:09:31.163Z,92693.47
2022-10-11T10:12:34.238Z,92698.94
2022-10-11T10:15:38.704Z,92701.63
2022-10-11T10:18:52.205Z,92700.50
2022-10-11T10:21:56.982Z,92706.50
2022-10-11T10:25:07.845Z,92719.06
2022-10-11T10:28:37.835Z,92717.19
2022-10-11T10:35:45.237Z,92725.72
2022-10-11T10:39:02.195Z,92715.31
2022-10-11T10:42:14.906Z,92713.34
2022-10-11T10:45:21.795Z,92721.13
2022-10-11T10:52:47.868Z,92715.91
2022-10-11T10:56:06.376Z,92725.75
2022-10-11T10:59:46.824Z,92722.47
2022-10-11T11:03:12.971Z,92723.84
2022-10-11T11:06:37.252Z,92729.13
2022-10-11T11:09:55.852Z,92726.56
2022-10-11T11:13:33.834Z,92728.59
2022-10-11T11:17:06.857Z,92724.75
2022-10-11T11:20:50.854Z,92726.75
2022-10-11T11:24:30.074Z,92729.34
2022-10-11T11:27:51.602Z,92729.38
2022-10-11T11:31:07.898Z,92729.44
2022-10-11T11:34:44.641Z,92726.13
2022-10-11T11:37:48.928Z,92721.50
2022-10-11T11:40:58.224Z,92722.81
2022-10-11T11:44:11.795Z,92724.75
2022-10-11T11:47:40.884Z,92722.78
2022-10-11T11:50:47.437Z,92727.97
2022-10-11T11:54:09.920Z,92730.56
2022-10-11T11:57:35.866Z,92737.72
2022-10-11T12:01:08.147Z,92739.00
2022-10-11T12:04:31.448Z,92738.34
2022-10-11T12:07:49.692Z,92742.25
2022-10-11T12:10:56.469Z,92744.22
2022-10-11T12:14:01.527Z,92741.59
2022-10-11T12:17:25.852Z,92741.59
2022-10-11T12:20:33.371Z,92744.91
2022-10-11T12:23:42.539Z,92748.88
2022-10-11T12:26:47.469Z,92749.56
2022-10-11T12:29:50.640Z,92743.06
2022-10-11T12:33:14.009Z,92740.50
2022-10-11T12:36:30.854Z,92741.84
2022-10-11T12:40:04.454Z,92749.09
2022-10-11T12:43:16.674Z,92748.44
2022-10-11T12:46:31.916Z,92753.69
2022-10-11T12:49:46.858Z,92751.75
2022-10-11T12:53:04.257Z,92744.56
2022-10-11T12:56:12.644Z,92750.47
2022-10-11T12:59:22.726Z,92754.38
2022-10-11T13:02:37.871Z,92751.75
2022-10-11T13:05:50.987Z,92750.41
2022-10-11T13:09:33.297Z,92758.28
2022-10-11T13:12:42.454Z,92764.16
2022-10-11T13:15:46.184Z,92759.59
2022-10-11T13:18:51.781Z,92761.56
2022-10-11T13:21:58.395Z,92762.88
2022-10-11T13:25:06.928Z,92752.41
2022-10-11T13:28:10.828Z,92760.25
2022-10-11T13:31:13.891Z,92755.69
2022-10-11T13:34:22.371Z,92762.88
2022-10-11T13:37:28.813Z,92762.88
2022-10-11T13:40:32.687Z,92767.44
2022-10-11T13:43:36.857Z,92766.13
2022-10-11T13:46:41.771Z,92768.06
2022-10-11T13:49:50.952Z,92762.84
2022-10-11T13:53:00.952Z,92761.56
2022-10-11T13:56:08.897Z,92765.47
2022-10-11T13:59:20.477Z,92766.13
2022-10-11T14:02:24.882Z,92764.84
2022-10-11T14:05:36.061Z,92769.41
2022-10-11T14:08:45.314Z,92766.13
2022-10-11T14:11:48.836Z,92772.00
2022-10-11T14:14:52.108Z,92771.34
2022-10-11T14:17:55.351Z,92777.25
2022-10-11T14:20:58.437Z,92772.66
2022-10-11T14:24:11.343Z,92776.56
2022-10-11T14:27:24.891Z,92772.63
2022-10-11T14:30:29.017Z,92783.75
2022-10-11T14:33:32.055Z,92787.00
2022-10-11T14:36:35.455Z,92785.03
2022-10-11T14:39:38.617Z,92777.22
2022-10-11T14:42:45.366Z,92782.44
2022-10-11T14:45:48.395Z,92784.41
2022-10-11T14:48:56.281Z,92781.13
2022-10-11T14:52:00.292Z,92782.41
2022-10-11T14:55:04.581Z,92780.47
2022-10-11T14:58:09.219Z,92785.72
2022-10-11T15:01:16.960Z,92780.47
2022-10-11T15:04:25.495Z,92781.16
2022-10-11T15:07:28.491Z,92781.13
2022-10-11T15:10:42.213Z,92789.63
2022-10-11T15:13:45.879Z,92782.44
2022-10-11T15:16:48.945Z,92787.66
2022-10-11T15:19:52.025Z,92794.84
2022-10-11T15:22:56.469Z,92790.31
2022-10-11T15:25:59.518Z,92791.63
2022-10-11T15:29:02.693Z,92800.09
2022-10-11T15:32:05.794Z,92794.88
2022-10-11T15:35:09.241Z,92795.50
2022-10-11T15:38:21.313Z,92785.72
2022-10-11T15:41:24.658Z,92803.38
2022-10-11T15:44:27.865Z,92796.19
2022-10-11T15:47:30.860Z,92801.41
2022-10-11T15:50:37.965Z,92800.13
2022-10-11T15:53:41.313Z,92805.97
2022-10-11T15:56:44.329Z,92809.25
2022-10-11T15:59:47.389Z,92798.16
2022-10-11T16:02:55.122Z,92811.22
2022-10-11T16:06:04.676Z,92809.91
2022-10-11T16:09:08.390Z,92812.50
2022-10-11T16:12:12.263Z,92821.00
2022-10-11T16:15:16.085Z,92811.84
2022-10-11T16:18:21.662Z,92823.63
2022-10-11T16:21:24.844Z,92826.25
2022-10-11T16:24:29.123Z,92824.25
2022-10-11T16:27:32.845Z,92827.53
2022-10-11T16:30:39.380Z,92833.41
2022-10-11T16:33:48.642Z,92828.81
2022-10-11T16:36:51.630Z,92836.66
2022-10-11T16:39:54.656Z,92839.91
2022-10-11T16:42:57.827Z,92847.13
2022-10-11T16:46:00.772Z,92848.44
2022-10-11T16:49:04.360Z,92847.13
2022-10-11T16:52:07.459Z,92851.06
2022-10-11T16:55:12.192Z,92848.41
2022-10-11T16:58:15.269Z,92857.56
2022-10-11T17:01:19.830Z,92864.78
2022-10-11T17:04:23.308Z,92870.00
2022-10-11T17:07:26.936Z,92860.19
2022-10-11T17:10:39.854Z,92860.84
2022-10-11T17:13:42.926Z,92864.78
2022-10-11T17:16:46.119Z,92868.03
2022-10-11T17:19:50.840Z,92866.06
2022-10-11T17:22:54.076Z,92864.13
2022-10-11T17:25:57.343Z,92867.38
2022-10-11T17:29:02.808Z,92871.28
2022-10-11T17:32:06.075Z,92864.78
2022-10-11T17:35:09.240Z,92871.97
2022-10-11T17:38:12.249Z,92868.69
2022-10-11T17:41:16.838Z,92870.63
2022-10-11T17:44:20.320Z,92864.09
2022-10-11T17:47:23.294Z,92865.41
2022-10-11T17:50:26.398Z,92868.00
2022-10-11T17:53:29.378Z,92873.22
2022-10-11T17:56:36.768Z,92885.00
2022-10-11T17:59:40.879Z,92879.13
2022-10-11T18:02:43.937Z,92883.03
2022-10-11T18:05:46.947Z,92892.13
2022-10-11T18:08:52.168Z,92889.53
2022-10-11T18:11:55.464Z,92888.22
2022-10-11T18:14:58.394Z,92886.28
2022-10-11T18:18:01.459Z,92889.53
2022-10-11T18:21:04.578Z,92884.31
2022-10-11T18:24:12.155Z,92881.03
2022-10-11T18:27:15.138Z,92884.25
2022-10-11T18:30:18.188Z,92888.81
2022-10-11T18:33:21.155Z,92877.03
2022-10-11T18:36:26.745Z,92885.50
2022-10-11T18:39:29.858Z,92882.22
2022-10-11T18:42:32.879Z,92882.88
2022-10-11T18:45:35.849Z,92881.56
2022-10-11T18:48:42.697Z,92881.59
2022-10-11T18:51:46.203Z,92878.97
2022-10-11T18:54:49.125Z,92875.69
2022-10-11T18:57:52.201Z,92877.63
2022-10-11T19:00:55.379Z,92880.88
2022-10-11T19:04:00.486Z,92876.91
2022-10-11T19:07:03.846Z,92884.06
2022-10-11T19:10:07.355Z,92880.09
2022-10-11T19:13:10.312Z,92880.06
2022-10-11T19:16:18.953Z,92869.59
2022-10-11T19:19:27.637Z,92876.72
2022-10-11T19:22:30.691Z,92877.97
2022-10-11T19:25:37.562Z,92868.81
2022-10-11T19:28:40.595Z,92867.44
2022-10-11T19:31:46.147Z,92869.38
2022-10-11T19:34:49.150Z,92870.03
2022-10-11T19:37:52.171Z,92873.28
2022-10-11T19:40:55.264Z,92872.66
2022-10-11T19:44:01.285Z,92872.69
2022-10-11T19:47:05.509Z,92873.34
2022-10-11T19:50:09.027Z,92875.34
2022-10-11T19:53:12.010Z,92881.88
2022-10-11T19:56:17.622Z,92881.31
2022-10-11T19:59:22.514Z,92885.22
2022-10-11T20:02:25.278Z,92887.28
2022-10-11T20:05:28.335Z,92891.16
2022-10-11T20:08:32.030Z,92896.31
2022-10-11T20:11:35.069Z,92892.38
2022-10-11T20:14:38.105Z,92898.25
2022-10-11T20:17:50.501Z,92891.72
2022-10-11T20:20:55.431Z,92893.69
2022-10-11T20:24:00.202Z,92893.03
2022-10-11T20:27:04.992Z,92895.56
2022-10-11T20:30:08.391Z,92892.84
2022-10-11T20:33:11.469Z,92894.75
2022-10-11T20:36:22.479Z,92895.34
2022-10-11T20:39:25.912Z,92894.63
2022-10-11T20:42:29.922Z,92891.28
2022-10-11T20:45:33.116Z,92897.13
2022-10-11T20:48:37.651Z,92889.94
2022-10-11T20:51:42.265Z,92903.50
2022-10-11T20:54:45.250Z,92896.28
2022-10-11T20:57:48.240Z,92899.47
2022-10-11T21:00:58.207Z,92899.38
2022-10-11T21:04:02.731Z,92909.72
2022-10-11T21:07:05.653Z,92901.84
2022-10-11T21:10:08.815Z,92904.44
2022-10-11T21:13:11.781Z,92899.19
2022-10-11T21:16:16.724Z,92901.72
2022-10-11T21:19:19.422Z,92899.13
2022-10-11T21:22:22.564Z,92900.94
2022-10-11T21:25:25.525Z,92904.09
2022-10-11T21:28:28.541Z,92903.31
2022-10-11T21:31:34.285Z,92893.47
2022-10-11T21:34:37.536Z,92897.94
2022-10-11T21:37:40.644Z,92900.50
2022-10-11T21:40:43.616Z,92894.63
2022-10-11T21:43:47.739Z,92893.91
2022-10-11T21:47:07.491Z,92889.28
2022-10-11T21:50:11.237Z,92898.34
2022-10-11T21:53:14.189Z,92896.97
2022-10-11T21:56:17.244Z,92898.25
2022-10-11T21:59:20.225Z,92889.69
2022-10-11T22:02:23.268Z,92893.06
2022-10-11T22:05:26.261Z,92889.13
2022-10-11T22:08:29.367Z,92898.22
2022-10-11T22:11:32.665Z,92898.78
2022-10-11T22:14:35.735Z,92913.66
2022-10-11T22:17:38.759Z,92912.28
2022-10-11T22:20:42.066Z,92913.50
2022-10-11T22:23:47.583Z,92917.38
2022-10-11T22:26:50.560Z,92909.53
2022-10-11T22:29:53.543Z,92904.94
2022-10-11T22:32:56.920Z,92913.44
2022-10-11T22:36:02.259Z,92910.19
2022-10-11T22:39:08.452Z,92914.06
2022-10-11T22:42:11.503Z,92917.31
2022-10-11T22:45:14.616Z,92910.75
2022-10-11T22:48:17.719Z,92908.13
2022-10-11T22:51:20.733Z,92914.00
2022-10-11T22:54:23.825Z,92914.72
2022-10-11T22:57:26.836Z,92920.03
2022-10-11T23:00:29.939Z,92922.69
2022-10-11T23:03:33.033Z,92920.25
2022-10-11T23:06:36.246Z,92925.56
2022-10-11T23:09:39.346Z,92921.78
2022-10-11T23:12:42.396Z,92918.63
2022-10-11T23:15:45.553Z,92922.59
2022-10-11T23:18:48.589Z,92917.41
2022-10-11T23:21:51.741Z,92919.41
2022-10-11T23:24:54.772Z,92928.56
2022-10-11T23:28:00.107Z,92943.59
2022-10-11T23:31:09.279Z,92933.97
2022-10-11T23:34:12.235Z,92935.28
2022-10-11T23:37:15.291Z,92941.88
2022-10-11T23:40:18.507Z,92947.16
2022-10-11T23:43:21.559Z,92945.13
2022-10-11T23:46:24.592Z,92954.81
2022-10-11T23:49:27.607Z,92955.72
2022-10-11T23:52:30.725Z,92954.50
2022-10-11T23:55:33.746Z,92958.59
2022-10-11T23:58:37.089Z,92958.16
